createdAt,value
2019-05-11T00:03:58.457Z,6.37
2019-05-11T00:09:07.561Z,5.85
2019-05-11T00:14:14.457Z,5.90
2019-05-11T00:19:21.459Z,5.70
2019-05-11T00:24:29.598Z,6.20
2019-05-11T00:29:42.480Z,6.03
2019-05-11T00:34:49.421Z,6.35
2019-05-11T00:39:56.448Z,7.15
2019-05-11T00:45:03.546Z,6.28
2019-05-11T00:50:12.664Z,6.60
2019-05-11T00:55:20.620Z,5.85
2019-05-11T01:00:29.478Z,5.82
2019-05-11T01:05:36.459Z,6.25
2019-05-11T01:10:43.563Z,6.20
2019-05-11T01:15:50.455Z,6.20
2019-05-11T01:20:57.457Z,5.92
2019-05-11T01:26:04.559Z,6.25
2019-05-11T01:31:11.573Z,7.17
2019-05-11T01:36:18.458Z,8.00
2019-05-11T01:41:25.577Z,8.25
2019-05-11T01:46:32.438Z,7.58
2019-05-11T01:51:39.446Z,7.97
2019-05-11T01:56:46.580Z,7.72
2019-05-11T02:01:54.840Z,7.60
2019-05-11T02:07:01.610Z,9.65
2019-05-11T02:12:08.492Z,9.25
2019-05-11T02:17:17.252Z,9.60
2019-05-11T02:22:24.444Z,9.85
2019-05-11T02:27:31.451Z,9.33
2019-05-11T02:32:38.495Z,10.10
2019-05-11T02:37:46.464Z,10.80
2019-05-11T02:42:53.450Z,11.33
2019-05-11T02:48:00.446Z,11.73
2019-05-11T02:53:08.227Z,11.18
2019-05-11T02:58:15.437Z,12.30
2019-05-11T03:03:22.431Z,11.38
2019-05-11T03:08:29.479Z,11.00
2019-05-11T03:13:36.448Z,10.40
2019-05-11T03:18:43.468Z,10.63
2019-05-11T03:23:50.445Z,10.90
2019-05-11T03:28:57.439Z,10.50
2019-05-11T03:34:04.475Z,10.93
2019-05-11T03:39:11.441Z,11.10
2019-05-11T03:44:18.485Z,10.95
2019-05-11T03:49:25.447Z,10.70
2019-05-11T03:54:32.564Z,10.50
2019-05-11T03:59:39.563Z,10.82
2019-05-11T04:04:46.556Z,10.63
2019-05-11T04:09:53.450Z,10.68
2019-05-11T04:15:00.557Z,10.18
2019-05-11T04:20:08.028Z,9.68
2019-05-11T04:25:16.102Z,9.75
2019-05-11T04:30:23.544Z,9.20
2019-05-11T04:35:31.331Z,8.78
2019-05-11T04:45:44.451Z,8.10
2019-05-11T04:50:51.446Z,6.95
2019-05-11T04:55:59.394Z,6.17
2019-05-11T05:01:06.431Z,5.83
2019-05-11T05:06:24.903Z,5.33
2019-05-11T05:11:22.432Z,5.17
2019-05-11T05:16:31.471Z,4.97
2019-05-11T05:21:38.546Z,5.42
2019-05-11T05:26:45.495Z,4.85
2019-05-11T05:31:52.431Z,5.05
2019-05-11T05:36:59.459Z,4.67
2019-05-11T05:42:06.514Z,4.22
2019-05-11T05:47:13.467Z,4.40
2019-05-11T05:52:20.459Z,4.78
2019-05-11T05:57:27.461Z,4.58
2019-05-11T06:02:34.448Z,4.17
2019-05-11T06:07:43.425Z,4.13
2019-05-11T06:12:51.590Z,4.10
2019-05-11T06:18:00.574Z,3.70
2019-05-11T06:23:07.475Z,4.45
2019-05-11T06:28:14.568Z,3.87
2019-05-11T06:33:23.443Z,4.17
2019-05-11T06:38:30.511Z,3.75
2019-05-11T06:43:37.442Z,3.45
2019-05-11T06:48:46.455Z,2.90
2019-05-11T06:53:53.446Z,3.72
2019-05-11T06:59:00.449Z,3.52
2019-05-11T07:04:07.500Z,3.90
2019-05-11T07:09:14.452Z,3.65
2019-05-11T07:14:21.687Z,3.30
2019-05-11T07:19:28.591Z,3.12
2019-05-11T07:24:36.631Z,3.17
2019-05-11T07:29:43.567Z,4.12
2019-05-11T07:34:50.668Z,3.25
2019-05-11T07:39:58.162Z,11.95
2019-05-11T07:45:09.620Z,3.52
2019-05-11T07:50:18.204Z,5.50
2019-05-11T08:00:31.469Z,4.20
2019-05-11T08:05:38.693Z,3.20
2019-05-11T08:10:48.122Z,6.10
2019-05-11T08:15:54.866Z,8.75
2019-05-11T08:21:01.707Z,3.92
2019-05-11T08:26:08.609Z,3.25
2019-05-11T08:31:15.573Z,2.90
2019-05-11T08:36:22.545Z,3.37
2019-05-11T08:41:29.551Z,5.03
2019-05-11T08:46:38.624Z,5.45
2019-05-11T08:51:47.665Z,6.75
2019-05-11T08:56:54.454Z,5.80
2019-05-11T09:02:02.048Z,7.15
2019-05-11T09:07:09.344Z,3.65
2019-05-11T09:12:18.321Z,8.93
2019-05-11T09:17:25.455Z,3.03
2019-05-11T09:22:32.577Z,5.22
2019-05-11T09:27:39.455Z,3.30
2019-05-11T09:32:47.789Z,2.70
2019-05-11T09:37:55.393Z,3.02
2019-05-11T09:43:02.443Z,1.90
2019-05-11T09:48:09.559Z,5.07
2019-05-11T09:53:17.744Z,13.38
2019-05-11T09:58:24.612Z,3.50
2019-05-11T10:03:31.506Z,3.10
2019-05-11T10:08:38.455Z,2.45
2019-05-11T10:13:47.608Z,2.70
2019-05-11T10:18:54.700Z,2.70
2019-05-11T10:24:05.254Z,2.90
2019-05-11T10:34:18.518Z,2.58
2019-05-11T10:39:27.704Z,2.67
2019-05-11T10:44:34.467Z,8.33
2019-05-11T10:49:41.571Z,3.65
2019-05-11T10:54:50.885Z,3.30
2019-05-11T10:59:58.109Z,3.30
2019-05-11T11:05:08.075Z,2.85
2019-05-11T11:10:15.108Z,3.02
2019-05-11T11:15:22.572Z,3.33
2019-05-11T11:20:29.474Z,2.90
2019-05-11T11:25:37.615Z,2.87
2019-05-11T11:30:44.584Z,3.30
2019-05-11T11:35:51.445Z,2.83
2019-05-11T11:40:58.833Z,2.83
2019-05-11T11:46:08.251Z,2.87
2019-05-11T11:51:14.465Z,3.00
2019-05-11T11:56:21.614Z,3.10
2019-05-11T12:01:28.570Z,3.33
2019-05-11T12:06:35.451Z,3.27
2019-05-11T12:11:44.768Z,12.15
2019-05-11T12:17:06.721Z,21.95
2019-05-11T12:22:02.044Z,6.90
2019-05-11T12:27:09.397Z,4.33
2019-05-11T12:32:22.725Z,2.95
2019-05-11T12:37:30.580Z,3.20
2019-05-11T12:42:38.474Z,2.72
2019-05-11T12:47:47.752Z,3.12
2019-05-11T12:52:56.007Z,4.97
2019-05-11T12:58:03.427Z,4.65
2019-05-11T13:03:11.464Z,5.10
2019-05-11T13:08:18.611Z,3.80
2019-05-11T13:13:25.547Z,7.47
2019-05-11T13:18:32.482Z,6.85
2019-05-11T13:23:39.466Z,4.22
2019-05-11T13:28:48.485Z,3.85
2019-05-11T13:33:55.433Z,4.15
2019-05-11T13:39:02.462Z,4.12
2019-05-11T13:44:09.467Z,5.43
2019-05-11T13:49:17.871Z,6.47
2019-05-11T13:54:25.567Z,4.92
2019-05-11T13:59:33.504Z,4.33
2019-05-11T14:04:40.586Z,5.10
2019-05-11T14:09:48.512Z,4.80
2019-05-11T14:14:57.672Z,5.58
2019-05-11T14:20:04.585Z,7.22
2019-05-11T14:25:12.096Z,6.35
2019-05-11T14:30:19.580Z,5.45
2019-05-11T14:35:28.044Z,5.15
2019-05-11T14:40:35.545Z,6.23
2019-05-11T14:45:42.539Z,6.10
2019-05-11T14:50:49.447Z,6.12
2019-05-11T14:55:58.463Z,5.30
2019-05-11T15:01:05.471Z,6.67
2019-05-11T15:06:12.577Z,17.98
2019-05-11T15:11:19.590Z,6.28
2019-05-11T15:16:27.855Z,4.70
2019-05-11T15:21:35.415Z,4.65
2019-05-11T15:28:28.643Z,4.33
2019-05-11T15:33:38.031Z,4.12
2019-05-11T15:38:44.452Z,4.58
2019-05-11T15:43:51.443Z,4.50
2019-05-11T15:49:03.072Z,5.35
2019-05-11T15:54:09.917Z,4.60
2019-05-11T15:59:16.766Z,4.60
2019-05-11T16:04:23.588Z,4.87
2019-05-11T16:09:30.570Z,5.12
2019-05-11T16:14:38.311Z,6.40
2019-05-11T16:19:45.470Z,6.35
2019-05-11T16:24:52.568Z,6.20
2019-05-11T16:29:59.652Z,5.60
2019-05-11T16:35:08.813Z,5.67
2019-05-11T16:40:20.186Z,6.10
2019-05-11T16:45:28.006Z,5.65
2019-05-11T16:50:34.586Z,5.83
2019-05-11T16:55:41.475Z,5.20
2019-05-11T17:00:49.580Z,5.60
2019-05-11T17:05:58.656Z,5.60
2019-05-11T17:11:08.001Z,6.23
2019-05-11T17:16:14.451Z,7.20
2019-05-11T17:21:21.629Z,5.87
2019-05-11T17:26:28.612Z,5.92
2019-05-11T17:31:37.862Z,6.17
2019-05-11T17:36:46.581Z,8.10
2019-05-11T17:52:08.094Z,7.13
2019-05-11T17:57:15.725Z,9.33
2019-05-11T18:02:22.575Z,9.30
2019-05-11T18:07:30.941Z,7.95
2019-05-11T18:12:39.226Z,9.03
2019-05-11T18:17:48.472Z,7.37
2019-05-11T18:22:57.651Z,7.80
2019-05-11T18:28:04.451Z,8.15
2019-05-11T18:33:11.579Z,8.83
2019-05-11T18:38:18.592Z,10.10
2019-05-11T18:43:27.780Z,8.83
2019-05-11T18:48:37.966Z,8.35
2019-05-11T18:53:44.445Z,7.40
2019-05-11T18:58:53.036Z,6.27
2019-05-11T19:04:00.273Z,6.95
2019-05-11T19:09:08.739Z,5.75
2019-05-11T19:14:15.643Z,6.00
2019-05-11T19:19:22.602Z,6.90
2019-05-11T19:24:32.572Z,5.80
2019-05-11T19:29:39.588Z,5.83
2019-05-11T19:34:47.791Z,5.53
2019-05-11T19:39:54.701Z,5.40
2019-05-11T19:45:01.798Z,5.87
2019-05-11T19:50:09.260Z,5.62
2019-05-11T19:55:17.963Z,5.83
2019-05-11T20:00:28.272Z,6.40
2019-05-11T20:05:38.253Z,5.30
2019-05-11T20:10:45.449Z,5.75
2019-05-11T20:15:52.486Z,5.58
2019-05-11T20:20:59.587Z,4.92
2019-05-11T20:26:08.740Z,4.60
2019-05-11T20:35:38.317Z,3.60
2019-05-11T20:40:45.593Z,3.60
2019-05-11T20:45:52.547Z,3.58
2019-05-11T20:50:59.622Z,3.40
2019-05-11T20:56:08.532Z,2.87
2019-05-11T21:01:17.900Z,2.92
2019-05-11T21:06:25.950Z,3.02
2019-05-11T21:11:33.036Z,2.50
2019-05-11T21:16:40.279Z,2.70
2019-05-11T21:21:53.443Z,2.65
2019-05-11T21:26:58.421Z,2.70
2019-05-11T21:32:08.041Z,2.55
2019-05-11T21:37:14.920Z,2.17
2019-05-11T21:42:25.136Z,2.60
2019-05-11T21:47:34.853Z,2.47
2019-05-11T21:52:42.864Z,2.62
2019-05-11T21:57:50.245Z,2.27
2019-05-11T22:02:57.595Z,2.30
2019-05-11T22:08:04.701Z,2.20
2019-05-11T22:13:11.777Z,2.65
2019-05-11T22:18:30.612Z,2.62
2019-05-11T22:23:28.214Z,2.50
2019-05-11T22:32:09.611Z,2.35
2019-05-11T22:37:18.644Z,2.30
2019-05-11T22:42:27.881Z,2.30
2019-05-11T22:47:34.438Z,1.80
2019-05-11T22:52:41.588Z,1.60
2019-05-11T22:57:48.700Z,1.70
2019-05-11T23:02:55.775Z,1.80
2019-05-11T23:08:03.941Z,1.52
2019-05-11T23:13:12.573Z,1.82
2019-05-11T23:18:20.710Z,1.62
2019-05-11T23:23:28.674Z,6.35
2019-05-11T23:28:37.800Z,7.12
2019-05-11T23:33:45.103Z,2.30
2019-05-11T23:38:52.407Z,2.70
2019-05-11T23:43:59.586Z,2.85
2019-05-11T23:49:08.613Z,2.37
2019-05-11T23:54:15.580Z,1.80
2019-05-11T23:59:22.920Z,1.95
